sensor_id;sensor_type;location;lat;lon;timestamp;temperature;humidity
60242;SHT30;46103;52.076;113.488;2023-11-18T00:01:18;-5.00;61.35
60242;SHT30;46103;52.076;113.488;2023-11-18T00:04:28;-4.85;62.21
60242;SHT30;46103;52.076;113.488;2023-11-18T00:07:39;-4.83;61.32
60242;SHT30;46103;52.076;113.488;2023-11-18T00:10:49;-4.74;62.35
60242;SHT30;46103;52.076;113.488;2023-11-18T00:14:00;-4.97;62.34
60242;SHT30;46103;52.076;113.488;2023-11-18T00:17:11;-4.83;63.89
60242;SHT30;46103;52.076;113.488;2023-11-18T00:20:22;-4.87;62.29
60242;SHT30;46103;52.076;113.488;2023-11-18T00:23:36;-4.70;63.30
60242;SHT30;46103;52.076;113.488;2023-11-18T00:26:52;-4.85;61.39
60242;SHT30;46103;52.076;113.488;2023-11-18T00:30:06;-4.49;67.24
60242;SHT30;46103;52.076;113.488;2023-11-18T00:33:23;-4.53;62.89
60242;SHT30;46103;52.076;113.488;2023-11-18T00:36:27;-4.39;62.93
60242;SHT30;46103;52.076;113.488;2023-11-18T00:39:32;-4.29;62.13
60242;SHT30;46103;52.076;113.488;2023-11-18T00:42:44;-4.19;63.08
60242;SHT30;46103;52.076;113.488;2023-11-18T00:45:49;-4.12;63.09
60242;SHT30;46103;52.076;113.488;2023-11-18T00:49:08;-3.95;63.36
60242;SHT30;46103;52.076;113.488;2023-11-18T00:52:38;-3.60;65.45
60242;SHT30;46103;52.076;113.488;2023-11-18T00:55:51;-3.63;61.43
60242;SHT30;46103;52.076;113.488;2023-11-18T00:59:08;-3.42;63.16
60242;SHT30;46103;52.076;113.488;2023-11-18T01:02:37;-3.27;62.15
60242;SHT30;46103;52.076;113.488;2023-11-18T01:05:57;-3.09;61.83
60242;SHT30;46103;52.076;113.488;2023-11-18T01:09:01;-2.77;66.51
60242;SHT30;46103;52.076;113.488;2023-11-18T01:12:06;-2.74;60.02
60242;SHT30;46103;52.076;113.488;2023-11-18T01:15:23;-2.67;60.06
60242;SHT30;46103;52.076;113.488;2023-11-18T01:18:29;-2.49;59.17
60242;SHT30;46103;52.076;113.488;2023-11-18T01:21:35;-2.39;58.69
60242;SHT30;46103;52.076;113.488;2023-11-18T01:24:53;-2.21;59.76
60242;SHT30;46103;52.076;113.488;2023-11-18T01:28:10;-2.08;59.65
60242;SHT30;46103;52.076;113.488;2023-11-18T01:31:14;-2.12;57.53
60242;SHT30;46103;52.076;113.488;2023-11-18T01:34:20;-2.05;59.67
60242;SHT30;46103;52.076;113.488;2023-11-18T01:37:35;-1.93;62.38
60242;SHT30;46103;52.076;113.488;2023-11-18T01:40:55;-1.79;58.81
60242;SHT30;46103;52.076;113.488;2023-11-18T01:43:59;-1.59;59.22
60242;SHT30;46103;52.076;113.488;2023-11-18T01:47:05;-1.58;56.59
60242;SHT30;46103;52.076;113.488;2023-11-18T01:50:13;-1.42;59.46
60242;SHT30;46103;52.076;113.488;2023-11-18T01:53:17;-1.21;60.77
60242;SHT30;46103;52.076;113.488;2023-11-18T01:56:23;-1.01;55.34
60242;SHT30;46103;52.076;113.488;2023-11-18T01:59:28;-0.95;57.68
60242;SHT30;46103;52.076;113.488;2023-11-18T02:02:33;-0.91;56.72
60242;SHT30;46103;52.076;113.488;2023-11-18T02:05:41;-0.87;56.60
60242;SHT30;46103;52.076;113.488;2023-11-18T02:08:45;-0.93;54.80
60242;SHT30;46103;52.076;113.488;2023-11-18T02:12:23;-0.77;57.96
60242;SHT30;46103;52.076;113.488;2023-11-18T02:15:34;-0.48;54.51
60242;SHT30;46103;52.076;113.488;2023-11-18T02:18:40;-0.23;57.44
60242;SHT30;46103;52.076;113.488;2023-11-18T02:21:46;0.10;55.20
60242;SHT30;46103;52.076;113.488;2023-11-18T02:24:52;0.29;58.77
60242;SHT30;46103;52.076;113.488;2023-11-18T02:28:34;0.46;56.82
60242;SHT30;46103;52.076;113.488;2023-11-18T02:31:57;0.36;53.65
60242;SHT30;46103;52.076;113.488;2023-11-18T02:38:34;0.46;54.78
60242;SHT30;46103;52.076;113.488;2023-11-18T02:41:52;0.31;54.53
60242;SHT30;46103;52.076;113.488;2023-11-18T02:44:57;0.27;59.68
60242;SHT30;46103;52.076;113.488;2023-11-18T02:48:06;0.47;55.75
60242;SHT30;46103;52.076;113.488;2023-11-18T02:51:11;0.47;55.29
60242;SHT30;46103;52.076;113.488;2023-11-18T02:54:24;0.57;56.81
60242;SHT30;46103;52.076;113.488;2023-11-18T02:57:44;0.51;54.75
60242;SHT30;46103;52.076;113.488;2023-11-18T03:00:48;0.10;56.58
60242;SHT30;46103;52.076;113.488;2023-11-18T03:03:52;0.09;56.59
60242;SHT30;46103;52.076;113.488;2023-11-18T03:06:59;0.06;53.04
60242;SHT30;46103;52.076;113.488;2023-11-18T03:10:10;0.36;63.57
60242;SHT30;46103;52.076;113.488;2023-11-18T03:13:18;0.82;53.84
60242;SHT30;46103;52.076;113.488;2023-11-18T03:16:26;0.41;58.94
60242;SHT30;46103;52.076;113.488;2023-11-18T03:19:37;0.93;55.96
60242;SHT30;46103;52.076;113.488;2023-11-18T03:22:47;1.05;52.76
60242;SHT30;46103;52.076;113.488;2023-11-18T03:25:58;1.02;53.34
60242;SHT30;46103;52.076;113.488;2023-11-18T03:29:11;1.16;52.57
60242;SHT30;46103;52.076;113.488;2023-11-18T03:32:23;1.26;58.31
60242;SHT30;46103;52.076;113.488;2023-11-18T03:35:33;1.43;52.31
60242;SHT30;46103;52.076;113.488;2023-11-18T03:38:47;1.67;51.93
60242;SHT30;46103;52.076;113.488;2023-11-18T03:42:01;1.96;51.22
60242;SHT30;46103;52.076;113.488;2023-11-18T03:45:10;2.16;50.74
60242;SHT30;46103;52.076;113.488;2023-11-18T03:48:22;2.29;50.07
60242;SHT30;46103;52.076;113.488;2023-11-18T03:51:34;2.09;50.16
60242;SHT30;46103;52.076;113.488;2023-11-18T03:54:43;2.12;49.76
60242;SHT30;46103;52.076;113.488;2023-11-18T03:58:01;1.96;50.26
60242;SHT30;46103;52.076;113.488;2023-11-18T04:01:09;1.92;53.51
60242;SHT30;46103;52.076;113.488;2023-11-18T04:04:44;1.88;51.13
60242;SHT30;46103;52.076;113.488;2023-11-18T04:07:52;1.98;51.35
60242;SHT30;46103;52.076;113.488;2023-11-18T04:10:58;2.25;50.81
60242;SHT30;46103;52.076;113.488;2023-11-18T04:14:03;2.54;53.39
60242;SHT30;46103;52.076;113.488;2023-11-18T04:17:21;2.81;54.62
60242;SHT30;46103;52.076;113.488;2023-11-18T04:20:24;3.15;55.24
60242;SHT30;46103;52.076;113.488;2023-11-18T04:23:28;3.22;56.57
60242;SHT30;46103;52.076;113.488;2023-11-18T04:26:37;3.33;52.28
60242;SHT30;46103;52.076;113.488;2023-11-18T04:29:40;3.34;51.31
60242;SHT30;46103;52.076;113.488;2023-11-18T04:32:44;3.41;55.29
60242;SHT30;46103;52.076;113.488;2023-11-18T04:35:48;3.53;54.74
60242;SHT30;46103;52.076;113.488;2023-11-18T04:38:52;3.66;54.75
60242;SHT30;46103;52.076;113.488;2023-11-18T04:41:55;3.74;56.51
60242;SHT30;46103;52.076;113.488;2023-11-18T04:45:01;3.82;56.51
60242;SHT30;46103;52.076;113.488;2023-11-18T04:48:05;3.82;56.54
60242;SHT30;46103;52.076;113.488;2023-11-18T04:51:09;3.77;56.77
60242;SHT30;46103;52.076;113.488;2023-11-18T04:54:15;4.02;56.60
60242;SHT30;46103;52.076;113.488;2023-11-18T04:57:19;4.70;54.72
60242;SHT30;46103;52.076;113.488;2023-11-18T05:00:23;5.05;52.71
60242;SHT30;46103;52.076;113.488;2023-11-18T05:03:27;5.22;51.32
60242;SHT30;46103;52.076;113.488;2023-11-18T05:06:32;5.44;50.73
60242;SHT30;46103;52.076;113.488;2023-11-18T05:14:22;5.64;50.09
60242;SHT30;46103;52.076;113.488;2023-11-18T05:17:53;5.71;50.42
60242;SHT30;46103;52.076;113.488;2023-11-18T05:21:01;5.68;50.61
60242;SHT30;46103;52.076;113.488;2023-11-18T05:25:22;5.79;50.56
60242;SHT30;46103;52.076;113.488;2023-11-18T05:34:36;5.64;51.11
60242;SHT30;46103;52.076;113.488;2023-11-18T05:44:03;5.49;51.62
60242;SHT30;46103;52.076;113.488;2023-11-18T05:47:57;5.58;51.58
60242;SHT30;46103;52.076;113.488;2023-11-18T05:51:57;5.47;51.81
60242;SHT30;46103;52.076;113.488;2023-11-18T05:56:11;5.23;52.66
60242;SHT30;46103;52.076;113.488;2023-11-18T05:59:42;5.02;53.61
60242;SHT30;46103;52.076;113.488;2023-11-18T06:09:00;5.56;53.27
60242;SHT30;46103;52.076;113.488;2023-11-18T06:13:06;5.87;52.87
60242;SHT30;46103;52.076;113.488;2023-11-18T06:17:11;6.15;52.26
60242;SHT30;46103;52.076;113.488;2023-11-18T06:25:51;6.08;51.97
60242;SHT30;46103;52.076;113.488;2023-11-18T06:34:32;6.06;52.19
60242;SHT30;46103;52.076;113.488;2023-11-18T06:37:53;5.75;52.72
60242;SHT30;46103;52.076;113.488;2023-11-18T06:41:24;5.63;53.12
60242;SHT30;46103;52.076;113.488;2023-11-18T06:50:08;5.13;54.53
60242;SHT30;46103;52.076;113.488;2023-11-18T06:53:44;4.91;55.31
60242;SHT30;46103;52.076;113.488;2023-11-18T06:56:51;4.75;55.52
60242;SHT30;46103;52.076;113.488;2023-11-18T07:00:29;4.72;55.59
60242;SHT30;46103;52.076;113.488;2023-11-18T07:03:48;4.98;55.11
60242;SHT30;46103;52.076;113.488;2023-11-18T07:07:39;5.04;54.67
60242;SHT30;46103;52.076;113.488;2023-11-18T07:11:45;4.99;54.75
60242;SHT30;46103;52.076;113.488;2023-11-18T07:35:16;4.68;55.51
60242;SHT30;46103;52.076;113.488;2023-11-18T07:39:28;5.13;54.59
60242;SHT30;46103;52.076;113.488;2023-11-18T08:02:24;6.13;52.25
60242;SHT30;46103;52.076;113.488;2023-11-18T08:06:11;6.18;52.12
60242;SHT30;46103;52.076;113.488;2023-11-18T08:10:15;5.85;52.70
60242;SHT30;46103;52.076;113.488;2023-11-18T08:14:09;5.56;53.70
60242;SHT30;46103;52.076;113.488;2023-11-18T08:17:50;5.56;53.83
60242;SHT30;46103;52.076;113.488;2023-11-18T08:22:32;5.57;53.90
60242;SHT30;46103;52.076;113.488;2023-11-18T08:26:34;5.35;54.42
60242;SHT30;46103;52.076;113.488;2023-11-18T08:31:13;5.08;55.15
60242;SHT30;46103;52.076;113.488;2023-11-18T08:34:27;4.93;55.58
60242;SHT30;46103;52.076;113.488;2023-11-18T08:37:42;4.70;56.13
60242;SHT30;46103;52.076;113.488;2023-11-18T08:41:41;4.43;57.05
60242;SHT30;46103;52.076;113.488;2023-11-18T08:45:08;4.32;57.50
60242;SHT30;46103;52.076;113.488;2023-11-18T08:49:11;4.19;57.86
60242;SHT30;46103;52.076;113.488;2023-11-18T08:57:56;3.79;58.72
60242;SHT30;46103;52.076;113.488;2023-11-18T09:01:37;3.73;58.98
60242;SHT30;46103;52.076;113.488;2023-11-18T09:05:28;3.61;59.24
60242;SHT30;46103;52.076;113.488;2023-11-18T09:12:42;3.44;59.61
60242;SHT30;46103;52.076;113.488;2023-11-18T09:21:17;3.20;60.49
60242;SHT30;46103;52.076;113.488;2023-11-18T09:28:58;3.12;60.39
60242;SHT30;46103;52.076;113.488;2023-11-18T09:32:39;3.02;60.76
60242;SHT30;46103;52.076;113.488;2023-11-18T09:35:45;2.95;60.94
60242;SHT30;46103;52.076;113.488;2023-11-18T09:38:49;2.88;61.12
60242;SHT30;46103;52.076;113.488;2023-11-18T09:41:56;2.81;61.36
60242;SHT30;46103;52.076;113.488;2023-11-18T09:44:59;2.77;61.56
60242;SHT30;46103;52.076;113.488;2023-11-18T09:48:08;2.70;61.79
60242;SHT30;46103;52.076;113.488;2023-11-18T09:51:15;2.62;62.17
60242;SHT30;46103;52.076;113.488;2023-11-18T09:54:36;2.54;62.19
60242;SHT30;46103;52.076;113.488;2023-11-18T09:57:50;2.58;62.29
60242;SHT30;46103;52.076;113.488;2023-11-18T10:01:01;2.62;61.89
60242;SHT30;46103;52.076;113.488;2023-11-18T10:04:07;2.62;61.68
60242;SHT30;46103;52.076;113.488;2023-11-18T10:07:10;2.53;62.13
60242;SHT30;46103;52.076;113.488;2023-11-18T10:10:16;2.50;62.11
60242;SHT30;46103;52.076;113.488;2023-11-18T10:13:20;2.44;62.32
60242;SHT30;46103;52.076;113.488;2023-11-18T10:16:28;2.51;62.19
60242;SHT30;46103;52.076;113.488;2023-11-18T10:19:51;2.51;62.16
60242;SHT30;46103;52.076;113.488;2023-11-18T10:23:09;2.53;62.12
60242;SHT30;46103;52.076;113.488;2023-11-18T10:26:16;2.53;62.23
60242;SHT30;46103;52.076;113.488;2023-11-18T10:29:20;2.60;61.97
60242;SHT30;46103;52.076;113.488;2023-11-18T10:32:25;2.57;62.18
60242;SHT30;46103;52.076;113.488;2023-11-18T10:35:34;2.57;62.05
60242;SHT30;46103;52.076;113.488;2023-11-18T10:38:40;2.50;62.19
60242;SHT30;46103;52.076;113.488;2023-11-18T10:41:58;2.43;62.11
60242;SHT30;46103;52.076;113.488;2023-11-18T10:45:03;2.38;61.91
60242;SHT30;46103;52.076;113.488;2023-11-18T10:48:08;2.44;61.76
60242;SHT30;46103;52.076;113.488;2023-11-18T10:51:21;2.47;61.52
60242;SHT30;46103;52.076;113.488;2023-11-18T10:54:29;2.47;61.57
60242;SHT30;46103;52.076;113.488;2023-11-18T10:57:33;2.46;61.61
60242;SHT30;46103;52.076;113.488;2023-11-18T11:00:52;2.47;61.49
60242;SHT30;46103;52.076;113.488;2023-11-18T11:04:04;2.51;61.39
60242;SHT30;46103;52.076;113.488;2023-11-18T11:07:09;2.58;60.62
60242;SHT30;46103;52.076;113.488;2023-11-18T11:10:14;2.66;60.44
60242;SHT30;46103;52.076;113.488;2023-11-18T11:13:22;2.75;60.34
60242;SHT30;46103;52.076;113.488;2023-11-18T11:16:42;2.71;60.40
60242;SHT30;46103;52.076;113.488;2023-11-18T11:20:08;2.66;60.58
60242;SHT30;46103;52.076;113.488;2023-11-18T11:23:30;2.61;60.37
60242;SHT30;46103;52.076;113.488;2023-11-18T11:27:09;2.60;60.73
60242;SHT30;46103;52.076;113.488;2023-11-18T11:30:35;2.53;60.64
60242;SHT30;46103;52.076;113.488;2023-11-18T11:34:08;2.51;60.75
60242;SHT30;46103;52.076;113.488;2023-11-18T11:37:15;2.51;60.71
60242;SHT30;46103;52.076;113.488;2023-11-18T11:40:21;2.53;60.69
60242;SHT30;46103;52.076;113.488;2023-11-18T11:43:26;2.53;60.72
60242;SHT30;46103;52.076;113.488;2023-11-18T11:46:33;2.51;60.81
60242;SHT30;46103;52.076;113.488;2023-11-18T11:49:53;2.47;60.89
60242;SHT30;46103;52.076;113.488;2023-11-18T11:53:11;2.41;61.10
60242;SHT30;46103;52.076;113.488;2023-11-18T11:56:19;2.40;61.30
60242;SHT30;46103;52.076;113.488;2023-11-18T12:02:52;2.25;61.56
60242;SHT30;46103;52.076;113.488;2023-11-18T12:06:01;2.25;61.58
60242;SHT30;46103;52.076;113.488;2023-11-18T12:09:15;2.15;61.93
60242;SHT30;46103;52.076;113.488;2023-11-18T12:12:24;2.09;62.11
60242;SHT30;46103;52.076;113.488;2023-11-18T12:15:52;1.99;62.43
60242;SHT30;46103;52.076;113.488;2023-11-18T12:19:41;1.92;62.61
60242;SHT30;46103;52.076;113.488;2023-11-18T12:23:08;1.88;62.67
60242;SHT30;46103;52.076;113.488;2023-11-18T12:26:37;1.83;62.49
60242;SHT30;46103;52.076;113.488;2023-11-18T12:29:42;1.77;62.56
60242;SHT30;46103;52.076;113.488;2023-11-18T12:33:05;1.78;62.43
60242;SHT30;46103;52.076;113.488;2023-11-18T12:50:18;1.99;61.52
60242;SHT30;46103;52.076;113.488;2023-11-18T12:53:29;2.03;61.29
60242;SHT30;46103;52.076;113.488;2023-11-18T12:56:34;2.06;61.36
60242;SHT30;46103;52.076;113.488;2023-11-18T12:59:40;2.03;61.43
60242;SHT30;46103;52.076;113.488;2023-11-18T13:02:57;2.10;61.19
60242;SHT30;46103;52.076;113.488;2023-11-18T13:06:19;2.15;61.11
60242;SHT30;46103;52.076;113.488;2023-11-18T13:09:31;2.13;61.15
60242;SHT30;46103;52.076;113.488;2023-11-18T13:12:41;2.12;61.27
60242;SHT30;46103;52.076;113.488;2023-11-18T13:15:49;2.12;61.39
60242;SHT30;46103;52.076;113.488;2023-11-18T13:18:57;2.12;61.52
60242;SHT30;46103;52.076;113.488;2023-11-18T13:22:05;2.03;62.27
60242;SHT30;46103;52.076;113.488;2023-11-18T13:25:28;2.06;62.47
60242;SHT30;46103;52.076;113.488;2023-11-18T13:28:39;1.98;62.65
60242;SHT30;46103;52.076;113.488;2023-11-18T13:31:46;1.88;63.00
60242;SHT30;46103;52.076;113.488;2023-11-18T13:35:24;1.74;63.47
60242;SHT30;46103;52.076;113.488;2023-11-18T13:39:04;1.65;63.72
60242;SHT30;46103;52.076;113.488;2023-11-18T13:42:42;1.64;63.91
60242;SHT30;46103;52.076;113.488;2023-11-18T13:46:19;1.67;63.88
60242;SHT30;46103;52.076;113.488;2023-11-18T13:49:34;1.64;63.95
60242;SHT30;46103;52.076;113.488;2023-11-18T13:53:26;1.64;63.98
60242;SHT30;46103;52.076;113.488;2023-11-18T13:57:07;1.60;64.10
60242;SHT30;46103;52.076;113.488;2023-11-18T14:00:36;1.60;64.11
60242;SHT30;46103;52.076;113.488;2023-11-18T14:03:45;1.64;64.04
60242;SHT30;46103;52.076;113.488;2023-11-18T14:07:20;1.64;64.02
60242;SHT30;46103;52.076;113.488;2023-11-18T14:10:33;1.62;63.93
60242;SHT30;46103;52.076;113.488;2023-11-18T14:13:53;1.64;63.96
60242;SHT30;46103;52.076;113.488;2023-11-18T14:17:08;1.61;63.85
60242;SHT30;46103;52.076;113.488;2023-11-18T14:25:34;1.77;63.33
60242;SHT30;46103;52.076;113.488;2023-11-18T14:29:25;1.82;63.00
60242;SHT30;46103;52.076;113.488;2023-11-18T14:33:05;1.86;62.92
60242;SHT30;46103;52.076;113.488;2023-11-18T14:36:11;1.88;62.86
60242;SHT30;46103;52.076;113.488;2023-11-18T14:39:15;1.89;62.75
60242;SHT30;46103;52.076;113.488;2023-11-18T14:42:35;1.89;62.70
60242;SHT30;46103;52.076;113.488;2023-11-18T14:45:40;1.94;62.38
60242;SHT30;46103;52.076;113.488;2023-11-18T14:48:46;1.99;62.13
60242;SHT30;46103;52.076;113.488;2023-11-18T14:51:50;1.98;62.05
60242;SHT30;46103;52.076;113.488;2023-11-18T14:55:01;1.98;62.40
60242;SHT30;46103;52.076;113.488;2023-11-18T14:58:07;1.94;62.65
60242;SHT30;46103;52.076;113.488;2023-11-18T15:01:19;1.91;62.83
60242;SHT30;46103;52.076;113.488;2023-11-18T15:04:25;1.82;62.97
60242;SHT30;46103;52.076;113.488;2023-11-18T15:07:31;1.81;62.51
60242;SHT30;46103;52.076;113.488;2023-11-18T15:10:34;1.79;62.96
60242;SHT30;46103;52.076;113.488;2023-11-18T15:13:42;1.77;63.05
60242;SHT30;46103;52.076;113.488;2023-11-18T15:16:50;1.85;62.58
60242;SHT30;46103;52.076;113.488;2023-11-18T15:19:59;1.91;62.32
60242;SHT30;46103;52.076;113.488;2023-11-18T15:23:13;1.94;62.16
60242;SHT30;46103;52.076;113.488;2023-11-18T15:26:24;1.99;62.04
60242;SHT30;46103;52.076;113.488;2023-11-18T15:29:41;1.94;62.17
60242;SHT30;46103;52.076;113.488;2023-11-18T15:32:56;1.94;62.27
60242;SHT30;46103;52.076;113.488;2023-11-18T15:36:07;1.91;62.42
60242;SHT30;46103;52.076;113.488;2023-11-18T15:39:15;1.77;63.26
60242;SHT30;46103;52.076;113.488;2023-11-18T15:42:25;1.70;63.53
60242;SHT30;46103;52.076;113.488;2023-11-18T15:45:36;1.54;63.82
60242;SHT30;46103;52.076;113.488;2023-11-18T15:48:45;1.36;64.31
60242;SHT30;46103;52.076;113.488;2023-11-18T15:51:54;1.20;64.81
60242;SHT30;46103;52.076;113.488;2023-11-18T15:55:04;1.09;65.28
60242;SHT30;46103;52.076;113.488;2023-11-18T15:58:16;0.99;65.62
60242;SHT30;46103;52.076;113.488;2023-11-18T16:01:26;0.86;65.93
60242;SHT30;46103;52.076;113.488;2023-11-18T16:04:34;0.84;66.31
60242;SHT30;46103;52.076;113.488;2023-11-18T16:07:45;0.89;66.13
60242;SHT30;46103;52.076;113.488;2023-11-18T16:10:53;0.91;65.98
60242;SHT30;46103;52.076;113.488;2023-11-18T16:14:03;0.91;65.95
60242;SHT30;46103;52.076;113.488;2023-11-18T16:17:12;0.93;65.87
60242;SHT30;46103;52.076;113.488;2023-11-18T16:20:22;0.92;66.01
60242;SHT30;46103;52.076;113.488;2023-11-18T16:23:31;0.92;65.94
60242;SHT30;46103;52.076;113.488;2023-11-18T16:26:42;0.89;66.04
60242;SHT30;46103;52.076;113.488;2023-11-18T16:29:52;0.88;66.20
60242;SHT30;46103;52.076;113.488;2023-11-18T16:33:02;0.84;66.37
60242;SHT30;46103;52.076;113.488;2023-11-18T16:36:20;0.76;66.29
60242;SHT30;46103;52.076;113.488;2023-11-18T16:39:34;0.71;66.60
60242;SHT30;46103;52.076;113.488;2023-11-18T16:42:43;0.67;66.82
60242;SHT30;46103;52.076;113.488;2023-11-18T16:45:52;0.60;67.07
60242;SHT30;46103;52.076;113.488;2023-11-18T16:49:02;0.53;67.33
60242;SHT30;46103;52.076;113.488;2023-11-18T16:52:12;0.44;67.72
60242;SHT30;46103;52.076;113.488;2023-11-18T16:55:25;0.40;67.88
60242;SHT30;46103;52.076;113.488;2023-11-18T16:58:39;0.37;67.90
60242;SHT30;46103;52.076;113.488;2023-11-18T17:01:49;0.33;67.98
60242;SHT30;46103;52.076;113.488;2023-11-18T17:04:59;0.30;68.16
60242;SHT30;46103;52.076;113.488;2023-11-18T17:08:09;0.30;68.16
60242;SHT30;46103;52.076;113.488;2023-11-18T17:11:19;0.27;68.15
60242;SHT30;46103;52.076;113.488;2023-11-18T17:14:27;0.24;68.28
60242;SHT30;46103;52.076;113.488;2023-11-18T17:17:37;0.26;68.21
60242;SHT30;46103;52.076;113.488;2023-11-18T17:20:48;0.21;68.17
60242;SHT30;46103;52.076;113.488;2023-11-18T17:23:57;0.29;67.99
60242;SHT30;46103;52.076;113.488;2023-11-18T17:27:09;0.34;67.59
60242;SHT30;46103;52.076;113.488;2023-11-18T17:30:22;0.30;67.75
60242;SHT30;46103;52.076;113.488;2023-11-18T17:33:31;0.29;68.06
60242;SHT30;46103;52.076;113.488;2023-11-18T17:36:42;0.34;67.72
60242;SHT30;46103;52.076;113.488;2023-11-18T17:39:55;0.30;67.99
60242;SHT30;46103;52.076;113.488;2023-11-18T17:43:04;0.24;67.99
60242;SHT30;46103;52.076;113.488;2023-11-18T17:46:14;0.14;68.09
60242;SHT30;46103;52.076;113.488;2023-11-18T17:49:24;0.06;68.27
60242;SHT30;46103;52.076;113.488;2023-11-18T17:52:35;0.06;68.13
60242;SHT30;46103;52.076;113.488;2023-11-18T17:55:43;0.19;67.52
60242;SHT30;46103;52.076;113.488;2023-11-18T17:58:54;0.16;68.02
60242;SHT30;46103;52.076;113.488;2023-11-18T18:02:05;0.07;67.81
60242;SHT30;46103;52.076;113.488;2023-11-18T18:05:16;-0.02;68.23
60242;SHT30;46103;52.076;113.488;2023-11-18T18:08:27;0.00;68.35
60242;SHT30;46103;52.076;113.488;2023-11-18T18:11:38;-0.11;68.39
60242;SHT30;46103;52.076;113.488;2023-11-18T18:14:49;-0.11;68.48
60242;SHT30;46103;52.076;113.488;2023-11-18T18:18:00;-0.07;68.29
60242;SHT30;46103;52.076;113.488;2023-11-18T18:21:11;-0.02;68.29
60242;SHT30;46103;52.076;113.488;2023-11-18T18:24:21;0.00;68.17
60242;SHT30;46103;52.076;113.488;2023-11-18T18:27:30;-0.04;68.18
60242;SHT30;46103;52.076;113.488;2023-11-18T18:30:42;-0.10;68.50
60242;SHT30;46103;52.076;113.488;2023-11-18T18:33:50;-0.12;68.10
60242;SHT30;46103;52.076;113.488;2023-11-18T18:36:59;-0.23;68.44
60242;SHT30;46103;52.076;113.488;2023-11-18T18:40:07;-0.32;68.76
60242;SHT30;46103;52.076;113.488;2023-11-18T18:43:19;-0.46;69.05
60242;SHT30;46103;52.076;113.488;2023-11-18T18:46:28;-0.57;69.30
60242;SHT30;46103;52.076;113.488;2023-11-18T18:49:37;-0.67;69.54
60242;SHT30;46103;52.076;113.488;2023-11-18T18:52:46;-0.79;70.26
60242;SHT30;46103;52.076;113.488;2023-11-18T18:55:54;-0.87;70.53
60242;SHT30;46103;52.076;113.488;2023-11-18T18:59:03;-0.97;70.80
60242;SHT30;46103;52.076;113.488;2023-11-18T19:02:18;-1.04;71.00
60242;SHT30;46103;52.076;113.488;2023-11-18T19:05:27;-1.08;71.52
60242;SHT30;46103;52.076;113.488;2023-11-18T19:08:36;-1.07;71.93
60242;SHT30;46103;52.076;113.488;2023-11-18T19:11:45;-1.03;71.85
60242;SHT30;46103;52.076;113.488;2023-11-18T19:14:54;-1.01;71.72
60242;SHT30;46103;52.076;113.488;2023-11-18T19:18:04;-1.04;71.65
60242;SHT30;46103;52.076;113.488;2023-11-18T19:21:13;-1.05;71.66
60242;SHT30;46103;52.076;113.488;2023-11-18T19:24:22;-1.11;71.70
60242;SHT30;46103;52.076;113.488;2023-11-18T19:27:32;-1.12;71.69
60242;SHT30;46103;52.076;113.488;2023-11-18T19:30:48;-1.22;71.92
60242;SHT30;46103;52.076;113.488;2023-11-18T19:33:57;-1.25;71.90
60242;SHT30;46103;52.076;113.488;2023-11-18T19:37:07;-1.32;72.30
60242;SHT30;46103;52.076;113.488;2023-11-18T19:40:18;-1.42;72.42
60242;SHT30;46103;52.076;113.488;2023-11-18T19:43:29;-1.46;72.80
60242;SHT30;46103;52.076;113.488;2023-11-18T19:46:38;-1.52;72.84
60242;SHT30;46103;52.076;113.488;2023-11-18T19:49:46;-1.46;73.07
60242;SHT30;46103;52.076;113.488;2023-11-18T19:52:55;-1.48;72.72
60242;SHT30;46103;52.076;113.488;2023-11-18T19:56:05;-1.56;72.73
60242;SHT30;46103;52.076;113.488;2023-11-18T19:59:15;-1.59;73.20
60242;SHT30;46103;52.076;113.488;2023-11-18T20:02:26;-1.58;73.00
60242;SHT30;46103;52.076;113.488;2023-11-18T20:05:36;-1.59;73.01
60242;SHT30;46103;52.076;113.488;2023-11-18T20:08:46;-1.55;73.05
60242;SHT30;46103;52.076;113.488;2023-11-18T20:11:56;-1.52;72.93
60242;SHT30;46103;52.076;113.488;2023-11-18T20:15:09;-1.55;72.79
60242;SHT30;46103;52.076;113.488;2023-11-18T20:18:21;-1.56;72.70
60242;SHT30;46103;52.076;113.488;2023-11-18T20:21:31;-1.58;72.92
60242;SHT30;46103;52.076;113.488;2023-11-18T20:24:42;-1.58;72.73
60242;SHT30;46103;52.076;113.488;2023-11-18T20:27:53;-1.59;72.70
60242;SHT30;46103;52.076;113.488;2023-11-18T20:31:03;-1.59;72.83
60242;SHT30;46103;52.076;113.488;2023-11-18T20:34:14;-1.62;72.82
60242;SHT30;46103;52.076;113.488;2023-11-18T20:37:25;-1.64;72.99
60242;SHT30;46103;52.076;113.488;2023-11-18T20:40:35;-1.70;72.91
60242;SHT30;46103;52.076;113.488;2023-11-18T20:43:45;-1.69;73.04
60242;SHT30;46103;52.076;113.488;2023-11-18T20:46:54;-1.74;72.93
60242;SHT30;46103;52.076;113.488;2023-11-18T20:50:04;-1.77;72.69
60242;SHT30;46103;52.076;113.488;2023-11-18T20:53:13;-1.86;72.71
60242;SHT30;46103;52.076;113.488;2023-11-18T20:56:23;-1.91;73.25
60242;SHT30;46103;52.076;113.488;2023-11-18T20:59:33;-1.94;73.47
60242;SHT30;46103;52.076;113.488;2023-11-18T21:02:42;-1.97;73.47
60242;SHT30;46103;52.076;113.488;2023-11-18T21:05:54;-2.05;73.60
60242;SHT30;46103;52.076;113.488;2023-11-18T21:09:04;-2.05;73.75
60242;SHT30;46103;52.076;113.488;2023-11-18T21:12:15;-2.02;73.58
60242;SHT30;46103;52.076;113.488;2023-11-18T21:15:25;-2.04;73.84
60242;SHT30;46103;52.076;113.488;2023-11-18T21:18:35;-2.05;73.84
60242;SHT30;46103;52.076;113.488;2023-11-18T21:21:44;-2.07;73.75
60242;SHT30;46103;52.076;113.488;2023-11-18T21:24:52;-2.09;73.90
60242;SHT30;46103;52.076;113.488;2023-11-18T21:28:02;-2.12;74.12
60242;SHT30;46103;52.076;113.488;2023-11-18T21:31:12;-2.18;74.03
60242;SHT30;46103;52.076;113.488;2023-11-18T21:34:24;-2.21;74.14
60242;SHT30;46103;52.076;113.488;2023-11-18T21:37:32;-2.21;74.25
60242;SHT30;46103;52.076;113.488;2023-11-18T21:40:41;-2.24;74.23
60242;SHT30;46103;52.076;113.488;2023-11-18T21:43:52;-2.27;74.63
60242;SHT30;46103;52.076;113.488;2023-11-18T21:47:02;-2.31;74.44
60242;SHT30;46103;52.076;113.488;2023-11-18T21:50:12;-2.31;74.63
60242;SHT30;46103;52.076;113.488;2023-11-18T21:53:25;-2.34;74.67
60242;SHT30;46103;52.076;113.488;2023-11-18T21:56:35;-2.34;74.91
60242;SHT30;46103;52.076;113.488;2023-11-18T21:59:44;-2.35;74.72
60242;SHT30;46103;52.076;113.488;2023-11-18T22:02:54;-2.35;74.97
60242;SHT30;46103;52.076;113.488;2023-11-18T22:06:02;-2.39;75.00
60242;SHT30;46103;52.076;113.488;2023-11-18T22:09:12;-2.42;74.98
60242;SHT30;46103;52.076;113.488;2023-11-18T22:12:21;-2.41;75.53